<?xml version="1.0" encoding="UTF-8" standalone="no" ?>
<gpx xmlns="http://www.topografix.com/GPX/1/1" xmlns:xsi="http://www.w3.org/2001/XMLSchema-instance" xsi:schemaLocation="http://www.topografix.com/GPX/1/1 http://www.topografix.com/GPX/1/1/gpx.xsd" version="1.1" creator="VisuGPX - https://www.visugpx.com">
  <metadata>
    <name>13780430-Flavigny</name>
  </metadata>
  <trk>
    <name><![CDATA[13780430-Flavigny]]></name>
    <trkseg>
      <trkpt lat="48.56826" lon="6.19324">
        <ele>226</ele>
        <time>2021-10-03T08:16:00Z</time>
      </trkpt>
      <trkpt lat="48.56897" lon="6.19207">
        <ele>224</ele>
        <time>2021-10-03T08:17:24Z</time>
      </trkpt>
      <trkpt lat="48.56964" lon="6.19054">
        <ele>224</ele>
        <time>2021-10-03T08:19:01Z</time>
      </trkpt>
      <trkpt lat="48.57083" lon="6.18921">
        <ele>225</ele>
        <time>2021-10-03T08:21:00Z</time>
      </trkpt>
      <trkpt lat="48.57272" lon="6.1888">
        <ele>225</ele>
        <time>2021-10-03T08:23:33Z</time>
      </trkpt>
      <trkpt lat="48.57495" lon="6.18829">
        <ele>227</ele>
        <time>2021-10-03T08:26:33Z</time>
      </trkpt>
      <trkpt lat="48.5739" lon="6.19141">
        <ele>228</ele>
        <time>2021-10-03T08:29:39Z</time>
      </trkpt>
      <trkpt lat="48.57299" lon="6.19396">
        <ele>226</ele>
        <time>2021-10-03T08:32:12Z</time>
      </trkpt>
      <trkpt lat="48.57208" lon="6.19641">
        <ele>228</ele>
        <time>2021-10-03T08:34:41Z</time>
      </trkpt>
      <trkpt lat="48.57076" lon="6.19712">
        <ele>227</ele>
        <time>2021-10-03T08:36:33Z</time>
      </trkpt>
      <trkpt lat="48.57231" lon="6.19845">
        <ele>235</ele>
        <time>2021-10-03T08:38:56Z</time>
      </trkpt>
      <trkpt lat="48.56944" lon="6.2061">
        <ele>238</ele>
        <time>2021-10-03T08:46:42Z</time>
      </trkpt>
      <trkpt lat="48.56877" lon="6.20881">
        <ele>237</ele>
        <time>2021-10-03T08:49:15Z</time>
      </trkpt>
      <trkpt lat="48.56748" lon="6.21376">
        <ele>241</ele>
        <time>2021-10-03T08:53:57Z</time>
      </trkpt>
      <trkpt lat="48.56657" lon="6.21662">
        <ele>241</ele>
        <time>2021-10-03T08:56:45Z</time>
      </trkpt>
      <trkpt lat="48.56569" lon="6.21983">
        <ele>243</ele>
        <time>2021-10-03T08:59:49Z</time>
      </trkpt>
      <trkpt lat="48.56505" lon="6.22187">
        <ele>243</ele>
        <time>2021-10-03T09:01:49Z</time>
      </trkpt>
      <trkpt lat="48.56387" lon="6.22417">
        <ele>244</ele>
        <time>2021-10-03T09:04:23Z</time>
      </trkpt>
      <trkpt lat="48.56286" lon="6.22636">
        <ele>242</ele>
        <time>2021-10-03T09:06:45Z</time>
      </trkpt>
      <trkpt lat="48.56127" lon="6.22881">
        <ele>246</ele>
        <time>2021-10-03T09:09:46Z</time>
      </trkpt>
      <trkpt lat="48.55975" lon="6.23157">
        <ele>247</ele>
        <time>2021-10-03T09:12:57Z</time>
      </trkpt>
      <trkpt lat="48.55853" lon="6.23361">
        <ele>246</ele>
        <time>2021-10-03T09:15:22Z</time>
      </trkpt>
      <trkpt lat="48.55796" lon="6.23494">
        <ele>243</ele>
        <time>2021-10-03T09:16:46Z</time>
      </trkpt>
      <trkpt lat="48.55769" lon="6.23667">
        <ele>243</ele>
        <time>2021-10-03T09:18:20Z</time>
      </trkpt>
      <trkpt lat="48.55745" lon="6.23872">
        <ele>242</ele>
        <time>2021-10-03T09:20:11Z</time>
      </trkpt>
      <trkpt lat="48.55755" lon="6.24071">
        <ele>242</ele>
        <time>2021-10-03T09:21:57Z</time>
      </trkpt>
      <trkpt lat="48.55749" lon="6.24265">
        <ele>245</ele>
        <time>2021-10-03T09:23:40Z</time>
      </trkpt>
      <trkpt lat="48.55688" lon="6.24377">
        <ele>241</ele>
        <time>2021-10-03T09:24:56Z</time>
      </trkpt>
      <trkpt lat="48.55624" lon="6.24545">
        <ele>239</ele>
        <time>2021-10-03T09:26:39Z</time>
      </trkpt>
      <trkpt lat="48.55586" lon="6.24586">
        <ele>237</ele>
        <time>2021-10-03T09:27:16Z</time>
      </trkpt>
      <trkpt lat="48.55553" lon="6.24678">
        <ele>238</ele>
        <time>2021-10-03T09:28:12Z</time>
      </trkpt>
      <trkpt lat="48.55539" lon="6.24826">
        <ele>241</ele>
        <time>2021-10-03T09:29:31Z</time>
      </trkpt>
      <trkpt lat="48.55465" lon="6.24984">
        <ele>240</ele>
        <time>2021-10-03T09:31:14Z</time>
      </trkpt>
      <trkpt lat="48.55384" lon="6.25153">
        <ele>243</ele>
        <time>2021-10-03T09:33:04Z</time>
      </trkpt>
      <trkpt lat="48.55316" lon="6.25306">
        <ele>243</ele>
        <time>2021-10-03T09:34:42Z</time>
      </trkpt>
      <trkpt lat="48.55239" lon="6.25408">
        <ele>240</ele>
        <time>2021-10-03T09:36:04Z</time>
      </trkpt>
      <trkpt lat="48.55195" lon="6.25295">
        <ele>238</ele>
        <time>2021-10-03T09:37:13Z</time>
      </trkpt>
      <trkpt lat="48.55134" lon="6.25163">
        <ele>236</ele>
        <time>2021-10-03T09:38:39Z</time>
      </trkpt>
      <trkpt lat="48.55083" lon="6.2502">
        <ele>233</ele>
        <time>2021-10-03T09:40:05Z</time>
      </trkpt>
      <trkpt lat="48.5508" lon="6.24841">
        <ele>234</ele>
        <time>2021-10-03T09:41:40Z</time>
      </trkpt>
      <trkpt lat="48.55086" lon="6.24693">
        <ele>233</ele>
        <time>2021-10-03T09:42:58Z</time>
      </trkpt>
      <trkpt lat="48.55026" lon="6.24545">
        <ele>231</ele>
        <time>2021-10-03T09:44:30Z</time>
      </trkpt>
      <trkpt lat="48.54884" lon="6.24198">
        <ele>232</ele>
        <time>2021-10-03T09:48:07Z</time>
      </trkpt>
      <trkpt lat="48.54695" lon="6.23632">
        <ele>233</ele>
        <time>2021-10-03T09:53:43Z</time>
      </trkpt>
      <trkpt lat="48.54836" lon="6.23371">
        <ele>235</ele>
        <time>2021-10-03T09:56:41Z</time>
      </trkpt>
      <trkpt lat="48.55019" lon="6.23228">
        <ele>238</ele>
        <time>2021-10-03T09:59:26Z</time>
      </trkpt>
      <trkpt lat="48.55178" lon="6.23116">
        <ele>237</ele>
        <time>2021-10-03T10:01:47Z</time>
      </trkpt>
      <trkpt lat="48.55286" lon="6.22994">
        <ele>236</ele>
        <time>2021-10-03T10:03:35Z</time>
      </trkpt>
      <trkpt lat="48.55445" lon="6.22795">
        <ele>234</ele>
        <time>2021-10-03T10:06:20Z</time>
      </trkpt>
      <trkpt lat="48.556" lon="6.22621">
        <ele>233</ele>
        <time>2021-10-03T10:08:55Z</time>
      </trkpt>
      <trkpt lat="48.55809" lon="6.22259">
        <ele>237</ele>
        <time>2021-10-03T10:13:09Z</time>
      </trkpt>
      <trkpt lat="48.55934" lon="6.21922">
        <ele>240</ele>
        <time>2021-10-03T10:16:34Z</time>
      </trkpt>
      <trkpt lat="48.56063" lon="6.21417">
        <ele>236</ele>
        <time>2021-10-03T10:21:21Z</time>
      </trkpt>
      <trkpt lat="48.56161" lon="6.21182">
        <ele>236</ele>
        <time>2021-10-03T10:23:48Z</time>
      </trkpt>
      <trkpt lat="48.56394" lon="6.20784">
        <ele>234</ele>
        <time>2021-10-03T10:28:29Z</time>
      </trkpt>
      <trkpt lat="48.56708" lon="6.20661">
        <ele>228</ele>
        <time>2021-10-03T10:32:49Z</time>
      </trkpt>
      <trkpt lat="48.56914" lon="6.2061">
        <ele>234</ele>
        <time>2021-10-03T10:35:36Z</time>
      </trkpt>
      <trkpt lat="48.57005" lon="6.20544">
        <ele>242</ele>
        <time>2021-10-03T10:36:57Z</time>
      </trkpt>
      <trkpt lat="48.57096" lon="6.20268">
        <ele>238</ele>
        <time>2021-10-03T10:39:40Z</time>
      </trkpt>
      <trkpt lat="48.5714" lon="6.20171">
        <ele>241</ele>
        <time>2021-10-03T10:40:43Z</time>
      </trkpt>
      <trkpt lat="48.57197" lon="6.20044">
        <ele>245</ele>
        <time>2021-10-03T10:42:04Z</time>
      </trkpt>
      <trkpt lat="48.57258" lon="6.19875">
        <ele>242</ele>
        <time>2021-10-03T10:43:46Z</time>
      </trkpt>
      <trkpt lat="48.56981" lon="6.19738">
        <ele>227</ele>
        <time>2021-10-03T10:47:39Z</time>
      </trkpt>
      <trkpt lat="48.56819" lon="6.19365">
        <ele>226</ele>
        <time>2021-10-03T10:51:36Z</time>
      </trkpt>
      <trkpt lat="48.56826" lon="6.19324">
        <ele>226</ele>
        <time>2021-10-03T10:51:58Z</time>
      </trkpt>
    </trkseg>
  </trk>
</gpx>